createdAt,value
2022-09-27T00:01:40.601Z,7.32
2022-09-27T00:04:35.953Z,8.52
2022-09-27T00:07:04.102Z,8.54
2022-09-27T00:09:42.818Z,8.43
2022-09-27T00:12:11.096Z,8.47
2022-09-27T00:14:39.288Z,8.52
2022-09-27T00:17:07.448Z,8.56
2022-09-27T00:19:36.997Z,8.38
2022-09-27T00:22:05.637Z,8.38
2022-09-27T00:24:34.265Z,8.39
2022-09-27T00:27:02.569Z,8.46
2022-09-27T00:29:30.974Z,8.43
2022-09-27T00:31:59.449Z,8.40
2022-09-27T00:34:27.992Z,8.49
2022-09-27T00:36:57.479Z,8.43
2022-09-27T00:39:25.921Z,8.39
2022-09-27T00:41:54.304Z,8.49
2022-09-27T00:45:08.193Z,8.40
2022-09-27T00:47:42.473Z,8.40
2022-09-27T00:50:24.199Z,8.49
2022-09-27T00:53:06.406Z,8.51
2022-09-27T00:55:41.172Z,8.55
2022-09-27T00:58:09.772Z,8.45
2022-09-27T01:00:40.122Z,8.61
2022-09-27T01:03:11.418Z,8.48
2022-09-27T01:05:41.712Z,8.35
2022-09-27T01:08:11.682Z,8.43
2022-09-27T01:10:52.517Z,8.47
2022-09-27T01:13:26.254Z,8.45
2022-09-27T01:16:05.731Z,8.38
2022-09-27T01:18:39.849Z,8.38
2022-09-27T01:21:39.380Z,8.41
2022-09-27T01:24:54.791Z,8.33
2022-09-27T01:27:58.197Z,8.47
2022-09-27T01:30:33.719Z,8.27
2022-09-27T01:33:26.949Z,8.38
2022-09-27T01:36:10.471Z,8.40
2022-09-27T01:38:52.523Z,8.43
2022-09-27T01:41:30.501Z,8.39
2022-09-27T01:44:26.266Z,8.52
2022-09-27T01:47:05.887Z,8.51
2022-09-27T01:49:54.691Z,8.46
2022-09-27T01:52:28.660Z,8.48
2022-09-27T01:55:01.419Z,8.45
2022-09-27T01:58:00.217Z,8.44
2022-09-27T02:00:29.253Z,8.43
2022-09-27T02:03:27.439Z,8.41
2022-09-27T02:06:46.685Z,7.99
2022-09-27T02:09:34.502Z,8.53
2022-09-27T02:12:15.661Z,8.38
2022-09-27T02:14:48.695Z,7.94
2022-09-27T02:17:28.293Z,8.36
2022-09-27T02:20:07.212Z,8.27
2022-09-27T02:22:50.364Z,8.38
2022-09-27T02:25:25.757Z,8.27
2022-09-27T02:28:02.047Z,8.18
2022-09-27T02:30:34.013Z,8.19
2022-09-27T02:33:15.252Z,8.23
2022-09-27T02:35:46.042Z,8.15
2022-09-27T02:38:14.548Z,7.41
2022-09-27T02:40:47.196Z,8.21
2022-09-27T02:43:18.317Z,8.16
2022-09-27T02:46:05.768Z,8.30
2022-09-27T02:48:48.942Z,8.21
2022-09-27T02:51:34.363Z,8.24
2022-09-27T02:54:15.402Z,8.25
2022-09-27T02:57:32.360Z,8.38
2022-09-27T03:00:19.177Z,8.18
2022-09-27T03:03:10.199Z,8.14
2022-09-27T03:05:45.285Z,8.38
2022-09-27T03:08:16.164Z,8.34
2022-09-27T03:10:45.129Z,8.28
2022-09-27T03:13:14.057Z,8.30
2022-09-27T03:15:43.433Z,8.30
2022-09-27T03:18:20.598Z,8.24
2022-09-27T03:21:14.701Z,8.33
2022-09-27T03:23:44.256Z,8.28
2022-09-27T03:26:13.296Z,8.13
2022-09-27T03:28:42.202Z,8.30
2022-09-27T03:31:10.578Z,8.17
2022-09-27T03:34:07.837Z,8.14
2022-09-27T03:36:36.578Z,8.11
2022-09-27T03:39:06.378Z,8.04
2022-09-27T03:41:35.007Z,8.12
2022-09-27T03:44:03.352Z,8.01
2022-09-27T03:46:31.783Z,8.01
2022-09-27T03:49:00.116Z,8.09
2022-09-27T03:51:28.405Z,8.06
2022-09-27T03:53:56.817Z,7.99
2022-09-27T03:56:26.421Z,8.01
2022-09-27T03:58:54.849Z,8.06
2022-09-27T04:01:23.318Z,8.02
2022-09-27T04:04:11.425Z,8.01
2022-09-27T04:06:39.927Z,8.09
2022-09-27T04:09:09.191Z,8.20
2022-09-27T04:11:56.786Z,7.97
2022-09-27T04:14:25.050Z,8.09
2022-09-27T04:17:22.378Z,8.04
2022-09-27T04:20:11.774Z,7.83
2022-09-27T04:22:45.509Z,7.71
2022-09-27T04:25:14.298Z,7.56
2022-09-27T04:27:48.524Z,7.90
2022-09-27T04:30:17.292Z,7.93
2022-09-27T04:33:04.086Z,7.80
2022-09-27T04:36:18.784Z,7.66
2022-09-27T04:39:06.994Z,7.69
2022-09-27T04:41:38.266Z,7.53
2022-09-27T04:44:07.878Z,7.65
2022-09-27T04:46:36.399Z,7.76
2022-09-27T04:49:04.678Z,7.67
2022-09-27T04:51:36.707Z,7.71
2022-09-27T04:54:05.930Z,7.70
2022-09-27T04:56:38.008Z,7.69
2022-09-27T04:59:10.944Z,7.81
2022-09-27T05:01:41.422Z,7.77
2022-09-27T05:04:15.494Z,7.84
2022-09-27T05:06:50.731Z,7.68
2022-09-27T05:09:27.551Z,7.75
2022-09-27T05:11:57.838Z,7.72
2022-09-27T05:14:42.306Z,7.70
2022-09-27T05:17:34.143Z,7.69
2022-09-27T05:20:22.813Z,7.71
2022-09-27T05:23:08.179Z,7.60
2022-09-27T05:25:36.889Z,7.59
2022-09-27T05:28:06.131Z,7.46
2022-09-27T05:30:36.367Z,7.59
2022-09-27T05:33:08.798Z,7.51
2022-09-27T05:35:54.100Z,7.56
2022-09-27T05:38:26.648Z,7.44
2022-09-27T05:40:58.793Z,7.52
2022-09-27T05:43:28.370Z,7.43
2022-09-27T05:46:01.279Z,7.43
2022-09-27T05:48:30.308Z,7.54
2022-09-27T05:51:08.652Z,7.43
2022-09-27T05:53:40.126Z,7.56
2022-09-27T05:56:14.749Z,7.52
2022-09-27T05:59:03.202Z,7.50
2022-09-27T06:01:47.400Z,7.49
2022-09-27T06:04:34.393Z,7.49
2022-09-27T06:07:44.308Z,7.40
2022-09-27T06:10:19.096Z,7.66
2022-09-27T06:12:47.456Z,7.63
2022-09-27T06:15:37.465Z,7.54
2022-09-27T06:18:11.196Z,7.74
2022-09-27T06:20:41.493Z,7.56
2022-09-27T06:23:12.200Z,7.58
2022-09-27T06:25:41.552Z,7.58
2022-09-27T06:28:35.060Z,7.76
2022-09-27T06:31:08.938Z,7.75
2022-09-27T06:33:43.053Z,7.88
2022-09-27T06:36:11.649Z,7.75
2022-09-27T06:38:42.131Z,7.74
2022-09-27T06:41:17.251Z,7.69
2022-09-27T06:43:54.423Z,7.73
2022-09-27T06:46:31.428Z,7.76
2022-09-27T06:49:12.026Z,7.75
2022-09-27T06:51:42.203Z,7.71
2022-09-27T06:54:10.395Z,7.78
2022-09-27T06:56:38.735Z,7.79
2022-09-27T06:59:24.669Z,7.40
2022-09-27T07:02:16.943Z,7.78
2022-09-27T07:05:00.022Z,7.88
2022-09-27T07:07:42.391Z,7.77
2022-09-27T07:10:10.981Z,7.88
2022-09-27T07:12:39.457Z,7.93
2022-09-27T07:15:08.418Z,7.87
2022-09-27T07:17:37.370Z,7.59
2022-09-27T07:20:08.516Z,7.89
2022-09-27T07:22:42.266Z,7.99
2022-09-27T07:25:11.524Z,8.04
2022-09-27T07:27:41.639Z,8.01
2022-09-27T07:30:13.125Z,8.23
2022-09-27T07:32:42.261Z,8.33
2022-09-27T07:35:15.500Z,7.53
2022-09-27T07:37:45.478Z,8.22
2022-09-27T07:40:15.301Z,8.15
2022-09-27T07:42:43.785Z,8.05
2022-09-27T07:45:13.715Z,8.05
2022-09-27T07:48:02.911Z,7.93
2022-09-27T07:50:55.529Z,8.18
2022-09-27T07:53:42.410Z,8.18
2022-09-27T07:56:47.125Z,8.15
2022-09-27T07:59:18.928Z,8.21
2022-09-27T08:01:47.463Z,8.25
2022-09-27T08:04:18.499Z,8.26
2022-09-27T08:06:49.166Z,8.20
2022-09-27T08:09:19.078Z,8.42
2022-09-27T08:11:48.438Z,8.43
2022-09-27T08:14:16.667Z,8.51
2022-09-27T08:16:47.608Z,8.55
2022-09-27T08:19:20.073Z,8.56
2022-09-27T08:22:00.381Z,8.71
2022-09-27T08:24:50.022Z,8.52
2022-09-27T08:27:44.225Z,8.46
2022-09-27T08:30:34.867Z,8.39
2022-09-27T08:33:04.753Z,8.13
2022-09-27T08:35:34.186Z,8.28
2022-09-27T08:38:05.922Z,8.06
2022-09-27T08:40:50.361Z,8.19
2022-09-27T08:43:34.797Z,8.21
2022-09-27T08:46:20.447Z,7.97
2022-09-27T08:49:06.906Z,8.04
2022-09-27T08:51:36.643Z,8.04
2022-09-27T08:54:09.614Z,7.98
2022-09-27T08:56:38.529Z,8.04
2022-09-27T08:59:15.213Z,8.06
2022-09-27T09:01:44.500Z,7.92
2022-09-27T09:04:27.404Z,7.79
2022-09-27T09:07:06.962Z,7.99
2022-09-27T09:09:47.964Z,8.10
2022-09-27T09:12:47.184Z,8.17
2022-09-27T09:15:30.885Z,8.15
2022-09-27T09:18:28.286Z,7.88
2022-09-27T09:21:31.101Z,8.34
2022-09-27T09:24:27.382Z,8.32
2022-09-27T09:27:06.124Z,8.51
2022-09-27T09:30:05.349Z,8.34
2022-09-27T09:32:53.179Z,8.47
2022-09-27T09:35:27.599Z,8.46
2022-09-27T09:38:00.599Z,8.75
2022-09-27T09:40:33.570Z,8.62
2022-09-27T09:43:09.099Z,8.57
2022-09-27T09:45:42.937Z,8.51
2022-09-27T09:48:22.278Z,8.69
2022-09-27T09:50:55.068Z,8.63
2022-09-27T09:53:33.524Z,8.70
2022-09-27T09:56:09.197Z,8.66
2022-09-27T09:58:45.823Z,8.77
2022-09-27T10:01:22.984Z,8.60
2022-09-27T10:03:56.444Z,8.71
2022-09-27T10:06:26.125Z,8.99
2022-09-27T10:08:55.828Z,9.16
2022-09-27T10:11:40.786Z,9.46
2022-09-27T10:14:23.928Z,9.56
2022-09-27T10:17:00.923Z,9.44
2022-09-27T10:19:33.072Z,9.35
2022-09-27T10:22:13.315Z,9.22
2022-09-27T10:24:57.995Z,9.13
2022-09-27T10:27:45.885Z,9.30
2022-09-27T10:30:29.667Z,8.53
2022-09-27T10:33:01.082Z,9.11
2022-09-27T10:35:45.579Z,9.23
2022-09-27T10:38:29.053Z,8.58
2022-09-27T10:41:28.949Z,9.22
2022-09-27T10:44:22.711Z,9.21
2022-09-27T10:47:09.236Z,9.10
2022-09-27T10:49:46.145Z,9.36
2022-09-27T10:52:34.374Z,9.20
2022-09-27T10:55:09.864Z,9.52
2022-09-27T10:57:44.299Z,9.72
2022-09-27T11:00:24.677Z,9.49
2022-09-27T11:02:57.778Z,9.53
2022-09-27T11:05:36.591Z,9.40
2022-09-27T11:08:27.291Z,7.82
2022-09-27T11:11:21.250Z,8.55
2022-09-27T11:14:04.264Z,8.65
2022-09-27T11:16:52.203Z,8.41
2022-09-27T11:19:37.423Z,7.07
2022-09-27T11:22:22.071Z,8.14
2022-09-27T11:25:08.177Z,8.00
2022-09-27T11:27:52.272Z,8.04
2022-09-27T11:30:25.939Z,7.92
2022-09-27T11:33:50.325Z,8.12
2022-09-27T11:36:33.990Z,7.74
2022-09-27T11:39:10.941Z,8.05
2022-09-27T11:42:02.794Z,8.11
2022-09-27T11:45:31.857Z,8.18
2022-09-27T11:48:03.842Z,8.21
2022-09-27T11:51:14.839Z,8.43
2022-09-27T11:54:05.330Z,8.55
2022-09-27T11:56:50.046Z,8.68
2022-09-27T11:59:55.504Z,8.79
2022-09-27T12:03:12.256Z,8.99
2022-09-27T12:05:58.734Z,9.19
2022-09-27T12:08:48.056Z,9.32
2022-09-27T12:11:23.837Z,9.47
2022-09-27T12:13:58.603Z,9.87
2022-09-27T12:16:28.628Z,9.76
2022-09-27T12:18:58.112Z,9.68
2022-09-27T12:21:39.228Z,9.74
2022-09-27T12:24:07.969Z,9.59
2022-09-27T12:26:44.474Z,9.56
2022-09-27T12:29:23.514Z,9.58
2022-09-27T12:32:00.491Z,9.54
2022-09-27T12:34:40.010Z,9.27
2022-09-27T12:37:15.585Z,9.30
2022-09-27T12:39:51.814Z,9.18
2022-09-27T12:42:38.298Z,8.96
2022-09-27T12:45:15.185Z,8.75
2022-09-27T12:48:03.796Z,8.71
2022-09-27T12:50:38.168Z,8.58
2022-09-27T12:53:14.662Z,8.51
2022-09-27T12:56:11.812Z,8.51
2022-09-27T12:58:59.994Z,8.41
2022-09-27T13:02:05.793Z,8.02
2022-09-27T13:05:22.396Z,7.57
2022-09-27T13:08:20.349Z,7.56
2022-09-27T13:11:00.490Z,7.42
2022-09-27T13:13:36.587Z,6.79
2022-09-27T13:16:09.005Z,6.70
2022-09-27T13:18:56.219Z,6.80
2022-09-27T13:21:59.434Z,6.87
2022-09-27T13:24:53.798Z,6.91
2022-09-27T13:27:52.346Z,6.91
2022-09-27T13:30:48.318Z,7.03
2022-09-27T13:33:46.805Z,7.08
2022-09-27T13:36:34.510Z,7.39
2022-09-27T13:39:21.251Z,6.46
2022-09-27T13:42:35.842Z,7.24
2022-09-27T13:45:24.103Z,7.21
2022-09-27T13:47:56.879Z,7.17
2022-09-27T13:50:48.268Z,7.25
2022-09-27T13:53:30.031Z,7.49
2022-09-27T13:55:58.568Z,7.64
2022-09-27T13:58:50.345Z,7.79
2022-09-27T14:01:42.822Z,7.91
2022-09-27T14:04:19.764Z,7.93
2022-09-27T14:06:54.875Z,7.99
2022-09-27T14:09:35.989Z,7.91
2022-09-27T14:12:21.145Z,7.94
2022-09-27T14:14:52.506Z,8.00
2022-09-27T14:17:21.017Z,8.07
2022-09-27T14:19:51.327Z,8.19
2022-09-27T14:22:24.264Z,8.22
2022-09-27T14:25:05.029Z,8.32
2022-09-27T14:27:41.923Z,8.59
2022-09-27T14:30:31.672Z,8.65
2022-09-27T14:33:31.205Z,8.73
2022-09-27T14:36:26.837Z,8.79
2022-09-27T14:39:00.304Z,8.75
2022-09-27T14:41:37.615Z,8.59
2022-09-27T14:44:06.126Z,8.40
2022-09-27T14:46:35.057Z,8.42
2022-09-27T14:49:19.533Z,8.52
2022-09-27T14:51:53.693Z,8.28
2022-09-27T14:54:26.968Z,8.31
2022-09-27T14:56:57.599Z,7.69
2022-09-27T14:59:31.013Z,7.57
2022-09-27T15:02:02.196Z,8.29
2022-09-27T15:04:33.199Z,8.26
2022-09-27T15:07:03.337Z,8.39
2022-09-27T15:09:33.643Z,8.29
2022-09-27T15:12:05.155Z,8.26
2022-09-27T15:14:34.272Z,8.28
2022-09-27T15:17:06.043Z,8.17
2022-09-27T15:19:35.366Z,8.21
2022-09-27T15:22:24.951Z,8.07
2022-09-27T15:24:54.587Z,7.97
2022-09-27T15:27:25.983Z,7.92
2022-09-27T15:29:57.730Z,7.88
2022-09-27T15:32:28.706Z,7.97
2022-09-27T15:34:58.212Z,7.96
2022-09-27T15:37:29.745Z,7.92
2022-09-27T15:40:45.220Z,7.97
2022-09-27T15:43:22.913Z,7.74
2022-09-27T15:45:53.373Z,7.78
2022-09-27T15:48:22.707Z,7.77
2022-09-27T15:50:51.480Z,7.78
2022-09-27T15:53:46.575Z,7.72
2022-09-27T15:56:16.997Z,7.73
2022-09-27T15:58:45.871Z,7.63
2022-09-27T16:01:21.248Z,7.65
2022-09-27T16:03:59.975Z,7.77
2022-09-27T16:06:30.256Z,7.53
2022-09-27T16:08:58.667Z,7.47
2022-09-27T16:11:28.194Z,7.32
2022-09-27T16:13:56.348Z,7.62
2022-09-27T16:16:24.586Z,7.63
2022-09-27T16:18:53.643Z,7.63
2022-09-27T16:21:21.814Z,7.56
2022-09-27T16:23:50.043Z,7.73
2022-09-27T16:26:19.391Z,7.53
2022-09-27T16:28:49.471Z,7.55
2022-09-27T16:31:18.740Z,7.59
2022-09-27T16:33:49.620Z,7.51
2022-09-27T16:36:20.156Z,7.58
2022-09-27T16:38:52.542Z,7.53
2022-09-27T16:41:22.275Z,7.59
2022-09-27T16:43:52.746Z,7.59
2022-09-27T16:46:21.831Z,7.45
2022-09-27T16:48:50.327Z,7.48
2022-09-27T16:51:38.434Z,7.48
2022-09-27T16:54:15.870Z,7.30
2022-09-27T16:56:44.976Z,6.87
2022-09-27T16:59:14.702Z,7.26
2022-09-27T17:01:43.146Z,7.29
2022-09-27T17:04:11.415Z,7.26
2022-09-27T17:06:39.711Z,7.33
2022-09-27T17:09:08.319Z,7.31
2022-09-27T17:11:36.961Z,7.10
2022-09-27T17:14:05.226Z,7.22
2022-09-27T17:16:34.939Z,6.43
2022-09-27T17:19:03.416Z,6.85
2022-09-27T17:21:35.652Z,7.24
2022-09-27T17:24:07.100Z,6.79
2022-09-27T17:26:36.491Z,7.16
2022-09-27T17:29:05.472Z,7.02
2022-09-27T17:31:35.593Z,7.14
2022-09-27T17:34:04.758Z,6.58
2022-09-27T17:36:37.413Z,7.16
2022-09-27T17:39:06.283Z,7.28
2022-09-27T17:41:39.662Z,6.09
2022-09-27T17:44:08.406Z,7.25
2022-09-27T17:46:38.862Z,7.37
2022-09-27T17:49:24.748Z,7.30
2022-09-27T17:51:55.032Z,7.25
2022-09-27T17:54:27.805Z,7.28
2022-09-27T17:56:57.238Z,7.18
2022-09-27T17:59:26.033Z,7.25
2022-09-27T18:01:55.689Z,7.32
2022-09-27T18:04:25.095Z,7.37
2022-09-27T18:06:53.611Z,7.44
2022-09-27T18:09:21.923Z,7.32
2022-09-27T18:11:50.719Z,7.27
2022-09-27T18:14:19.176Z,7.30
2022-09-27T18:16:47.411Z,7.05
2022-09-27T18:19:18.674Z,7.29
2022-09-27T18:21:46.899Z,7.29
2022-09-27T18:24:15.275Z,7.23
2022-09-27T18:26:46.464Z,7.25
2022-09-27T18:29:16.786Z,7.26
2022-09-27T18:31:48.746Z,7.40
2022-09-27T18:34:20.259Z,7.30
2022-09-27T18:36:48.748Z,7.25
2022-09-27T18:39:19.261Z,7.23
2022-09-27T18:41:49.462Z,7.12
2022-09-27T18:44:19.171Z,7.20
2022-09-27T18:46:47.938Z,6.58
2022-09-27T18:49:21.062Z,7.15
2022-09-27T18:51:52.072Z,7.13
2022-09-27T18:54:23.123Z,6.91
2022-09-27T18:56:53.199Z,6.51
2022-09-27T18:59:23.531Z,7.07
2022-09-27T19:01:52.485Z,6.35
2022-09-27T19:04:24.710Z,7.04
2022-09-27T19:06:53.785Z,6.95
2022-09-27T19:09:22.500Z,6.88
2022-09-27T19:11:51.039Z,6.89
2022-09-27T19:14:22.367Z,6.86
2022-09-27T19:16:51.487Z,5.98
2022-09-27T19:19:22.730Z,6.85
2022-09-27T19:21:51.113Z,6.79
2022-09-27T19:24:19.678Z,6.78
2022-09-27T19:26:47.957Z,6.73
2022-09-27T19:29:16.331Z,6.83
2022-09-27T19:31:44.640Z,6.74
2022-09-27T19:34:12.871Z,6.67
2022-09-27T19:36:42.424Z,6.64
2022-09-27T19:39:10.618Z,6.70
2022-09-27T19:41:40.229Z,6.56
2022-09-27T19:44:08.474Z,6.69
2022-09-27T19:46:37.520Z,6.72
2022-09-27T19:49:06.361Z,6.60
2022-09-27T19:51:34.565Z,6.65
2022-09-27T19:54:04.466Z,6.60
2022-09-27T19:56:32.632Z,6.51
2022-09-27T19:59:04.925Z,6.52
2022-09-27T20:01:35.807Z,6.69
2022-09-27T20:04:04.462Z,6.67
2022-09-27T20:06:33.131Z,6.73
2022-09-27T20:09:04.128Z,6.64
2022-09-27T20:11:33.195Z,6.72
2022-09-27T20:14:01.492Z,6.73
2022-09-27T20:16:29.817Z,6.67
2022-09-27T20:19:00.832Z,6.74
2022-09-27T20:21:32.490Z,6.68
2022-09-27T20:24:03.903Z,6.69
2022-09-27T20:26:36.485Z,6.66
2022-09-27T20:29:06.858Z,6.65
2022-09-27T20:31:37.863Z,6.61
2022-09-27T20:34:08.464Z,6.81
2022-09-27T20:36:39.477Z,6.50
2022-09-27T20:39:11.330Z,6.75
2022-09-27T20:41:41.836Z,6.74
2022-09-27T20:44:12.671Z,6.80
2022-09-27T20:46:44.131Z,6.76
2022-09-27T20:49:15.598Z,6.79
2022-09-27T20:51:48.296Z,6.83
2022-09-27T20:54:18.420Z,6.94
2022-09-27T20:56:48.668Z,6.75
2022-09-27T20:59:19.416Z,6.97
2022-09-27T21:01:49.978Z,6.93
2022-09-27T21:04:21.377Z,6.71
2022-09-27T21:06:50.161Z,6.87
2022-09-27T21:09:19.934Z,6.89
2022-09-27T21:11:49.520Z,6.82
2022-09-27T21:14:18.032Z,6.82
2022-09-27T21:16:46.939Z,6.75
2022-09-27T21:19:15.431Z,6.86
2022-09-27T21:21:43.871Z,6.60
2022-09-27T21:24:12.386Z,6.83
2022-09-27T21:26:41.887Z,6.71
2022-09-27T21:29:11.737Z,6.72
2022-09-27T21:31:40.102Z,6.70
2022-09-27T21:34:08.414Z,6.62
2022-09-27T21:36:39.125Z,6.50
2022-09-27T21:39:09.233Z,6.47
2022-09-27T21:41:38.815Z,6.46
2022-09-27T21:44:09.574Z,6.41
2022-09-27T21:46:41.802Z,6.34
2022-09-27T21:49:11.141Z,6.33
2022-09-27T21:51:41.090Z,6.32
2022-09-27T21:54:12.005Z,6.39
2022-09-27T21:56:41.857Z,6.37
2022-09-27T21:59:15.205Z,6.45
2022-09-27T22:01:45.253Z,6.45
2022-09-27T22:04:14.499Z,6.46
2022-09-27T22:06:43.105Z,6.32
2022-09-27T22:09:16.502Z,6.31
2022-09-27T22:11:47.238Z,6.43
2022-09-27T22:14:19.756Z,6.34
2022-09-27T22:16:47.953Z,6.49
2022-09-27T22:19:17.563Z,6.48
2022-09-27T22:21:45.779Z,6.51
2022-09-27T22:24:16.461Z,6.46
2022-09-27T22:26:48.466Z,6.41
2022-09-27T22:29:18.836Z,6.19
2022-09-27T22:31:47.332Z,6.58
2022-09-27T22:34:18.703Z,5.73
2022-09-27T22:36:47.471Z,6.62
2022-09-27T22:39:15.770Z,6.01
2022-09-27T22:41:44.668Z,6.66
2022-09-27T22:44:12.927Z,6.67
2022-09-27T22:46:42.700Z,5.90
2022-09-27T22:49:10.960Z,6.74
2022-09-27T22:51:39.121Z,6.70
2022-09-27T22:54:07.619Z,6.79
2022-09-27T22:56:35.786Z,6.84
2022-09-27T22:59:04.318Z,6.79
2022-09-27T23:01:32.536Z,6.76
2022-09-27T23:04:02.920Z,6.89
2022-09-27T23:06:32.031Z,6.93
2022-09-27T23:09:01.348Z,6.83
2022-09-27T23:11:31.198Z,6.75
2022-09-27T23:13:59.400Z,6.82
2022-09-27T23:16:27.714Z,6.82
2022-09-27T23:18:57.858Z,6.92
2022-09-27T23:21:29.186Z,6.72
2022-09-27T23:23:59.732Z,6.74
2022-09-27T23:26:29.467Z,6.82
2022-09-27T23:28:59.873Z,6.76
2022-09-27T23:31:30.889Z,6.68
2022-09-27T23:34:02.720Z,6.67
2022-09-27T23:36:32.676Z,6.67
2022-09-27T23:39:01.703Z,6.72
2022-09-27T23:41:30.073Z,6.63
2022-09-27T23:43:58.855Z,6.66
2022-09-27T23:46:27.208Z,6.65
2022-09-27T23:48:58.779Z,6.69
2022-09-27T23:51:27.057Z,6.66
2022-09-27T23:53:57.146Z,6.59
2022-09-27T23:56:26.429Z,6.75
2022-09-27T23:58:54.600Z,6.75
